sensor_id;sensor_type;location;lat;lon;timestamp;temperature;humidity
22678;DHT22;26259;50.214;18.620;2023-01-10T00:02:07;6.10;99.90
22678;DHT22;26259;50.214;18.620;2023-01-10T00:04:32;6.10;99.90
22678;DHT22;26259;50.214;18.620;2023-01-10T00:06:58;6.10;99.90
22678;DHT22;26259;50.214;18.620;2023-01-10T00:09:23;6.10;99.90
22678;DHT22;26259;50.214;18.620;2023-01-10T00:11:49;6.10;99.90
22678;DHT22;26259;50.214;18.620;2023-01-10T00:14:33;6.10;99.90
22678;DHT22;26259;50.214;18.620;2023-01-10T00:17:01;6.10;99.90
22678;DHT22;26259;50.214;18.620;2023-01-10T00:19:26;6.10;99.90
22678;DHT22;26259;50.214;18.620;2023-01-10T00:21:52;6.10;99.90
22678;DHT22;26259;50.214;18.620;2023-01-10T00:24:18;6.10;99.90
22678;DHT22;26259;50.214;18.620;2023-01-10T00:26:45;6.00;99.90
22678;DHT22;26259;50.214;18.620;2023-01-10T00:29:18;6.00;99.90
22678;DHT22;26259;50.214;18.620;2023-01-10T00:31:44;6.00;99.90
22678;DHT22;26259;50.214;18.620;2023-01-10T00:34:10;6.00;99.90
22678;DHT22;26259;50.214;18.620;2023-01-10T00:36:36;6.00;99.90
22678;DHT22;26259;50.214;18.620;2023-01-10T00:39:01;5.90;99.90
22678;DHT22;26259;50.214;18.620;2023-01-10T00:41:31;5.90;99.90
22678;DHT22;26259;50.214;18.620;2023-01-10T00:44:15;5.90;99.90
22678;DHT22;26259;50.214;18.620;2023-01-10T00:46:41;5.90;99.90
22678;DHT22;26259;50.214;18.620;2023-01-10T00:49:07;5.90;99.90
22678;DHT22;26259;50.214;18.620;2023-01-10T00:51:33;5.80;99.90
22678;DHT22;26259;50.214;18.620;2023-01-10T00:53:59;5.80;99.90
22678;DHT22;26259;50.214;18.620;2023-01-10T00:56:24;5.80;99.90
22678;DHT22;26259;50.214;18.620;2023-01-10T00:58:50;5.80;99.90
22678;DHT22;26259;50.214;18.620;2023-01-10T01:01:15;5.80;99.90
22678;DHT22;26259;50.214;18.620;2023-01-10T01:03:41;5.80;99.90
22678;DHT22;26259;50.214;18.620;2023-01-10T01:06:07;5.80;99.90
22678;DHT22;26259;50.214;18.620;2023-01-10T01:08:33;5.80;99.90
22678;DHT22;26259;50.214;18.620;2023-01-10T01:10:58;5.80;99.90
22678;DHT22;26259;50.214;18.620;2023-01-10T01:13:24;5.80;99.90
22678;DHT22;26259;50.214;18.620;2023-01-10T01:15:50;5.70;99.90
22678;DHT22;26259;50.214;18.620;2023-01-10T01:18:18;5.70;99.90
22678;DHT22;26259;50.214;18.620;2023-01-10T01:20:46;5.70;99.90
22678;DHT22;26259;50.214;18.620;2023-01-10T01:23:15;5.70;99.90
22678;DHT22;26259;50.214;18.620;2023-01-10T01:25:40;5.70;99.90
22678;DHT22;26259;50.214;18.620;2023-01-10T01:28:06;5.70;99.90
22678;DHT22;26259;50.214;18.620;2023-01-10T01:30:32;5.70;99.90
22678;DHT22;26259;50.214;18.620;2023-01-10T01:32:58;5.70;99.90
22678;DHT22;26259;50.214;18.620;2023-01-10T01:35:23;5.70;99.90
22678;DHT22;26259;50.214;18.620;2023-01-10T01:37:50;5.70;99.90
22678;DHT22;26259;50.214;18.620;2023-01-10T01:40:18;5.70;99.90
22678;DHT22;26259;50.214;18.620;2023-01-10T01:42:45;5.70;99.90
22678;DHT22;26259;50.214;18.620;2023-01-10T01:47:45;5.60;99.90
22678;DHT22;26259;50.214;18.620;2023-01-10T01:50:23;5.60;99.90
22678;DHT22;26259;50.214;18.620;2023-01-10T01:52:53;5.60;99.90
22678;DHT22;26259;50.214;18.620;2023-01-10T01:55:20;5.60;99.90
22678;DHT22;26259;50.214;18.620;2023-01-10T01:57:47;5.50;99.90
22678;DHT22;26259;50.214;18.620;2023-01-10T02:00:14;5.50;99.90
22678;DHT22;26259;50.214;18.620;2023-01-10T02:02:49;5.50;99.90
22678;DHT22;26259;50.214;18.620;2023-01-10T02:05:17;5.50;99.90
22678;DHT22;26259;50.214;18.620;2023-01-10T02:07:50;5.50;99.90
22678;DHT22;26259;50.214;18.620;2023-01-10T02:10:21;5.50;99.90
22678;DHT22;26259;50.214;18.620;2023-01-10T02:12:50;5.50;99.90
22678;DHT22;26259;50.214;18.620;2023-01-10T02:15:17;5.50;99.90
22678;DHT22;26259;50.214;18.620;2023-01-10T02:17:46;5.50;99.90
22678;DHT22;26259;50.214;18.620;2023-01-10T02:20:12;5.50;99.90
22678;DHT22;26259;50.214;18.620;2023-01-10T02:36:43;5.50;99.90
22678;DHT22;26259;50.214;18.620;2023-01-10T02:42:05;5.50;99.90
22678;DHT22;26259;50.214;18.620;2023-01-10T02:44:59;5.50;99.90
22678;DHT22;26259;50.214;18.620;2023-01-10T02:47:37;5.50;99.90
22678;DHT22;26259;50.214;18.620;2023-01-10T03:04:50;5.50;99.90
22678;DHT22;26259;50.214;18.620;2023-01-10T03:07:36;5.50;99.90
22678;DHT22;26259;50.214;18.620;2023-01-10T03:10:09;5.50;99.90
22678;DHT22;26259;50.214;18.620;2023-01-10T03:13:05;5.40;99.90
22678;DHT22;26259;50.214;18.620;2023-01-10T03:15:34;5.40;99.90
22678;DHT22;26259;50.214;18.620;2023-01-10T03:18:04;5.40;99.90
22678;DHT22;26259;50.214;18.620;2023-01-10T03:20:34;5.40;99.90
22678;DHT22;26259;50.214;18.620;2023-01-10T03:23:03;5.40;99.90
22678;DHT22;26259;50.214;18.620;2023-01-10T03:25:31;5.40;99.90
22678;DHT22;26259;50.214;18.620;2023-01-10T03:28:39;5.40;99.90
22678;DHT22;26259;50.214;18.620;2023-01-10T03:31:13;5.40;99.90
22678;DHT22;26259;50.214;18.620;2023-01-10T03:33:40;5.40;99.90
22678;DHT22;26259;50.214;18.620;2023-01-10T03:36:33;5.40;99.90
22678;DHT22;26259;50.214;18.620;2023-01-10T03:39:23;5.40;99.90
22678;DHT22;26259;50.214;18.620;2023-01-10T03:42:04;5.30;99.90
22678;DHT22;26259;50.214;18.620;2023-01-10T03:44:48;5.40;99.90
22678;DHT22;26259;50.214;18.620;2023-01-10T03:47:41;5.40;99.90
22678;DHT22;26259;50.214;18.620;2023-01-10T03:50:16;5.40;99.90
22678;DHT22;26259;50.214;18.620;2023-01-10T03:52:43;5.40;99.90
22678;DHT22;26259;50.214;18.620;2023-01-10T03:55:14;5.40;99.90
22678;DHT22;26259;50.214;18.620;2023-01-10T03:57:43;5.30;99.90
22678;DHT22;26259;50.214;18.620;2023-01-10T04:00:11;5.30;99.90
22678;DHT22;26259;50.214;18.620;2023-01-10T04:02:37;5.30;99.90
22678;DHT22;26259;50.214;18.620;2023-01-10T04:05:03;5.30;99.90
22678;DHT22;26259;50.214;18.620;2023-01-10T04:07:29;5.30;99.90
22678;DHT22;26259;50.214;18.620;2023-01-10T04:09:54;5.30;99.90
22678;DHT22;26259;50.214;18.620;2023-01-10T04:12:20;5.30;99.90
22678;DHT22;26259;50.214;18.620;2023-01-10T04:14:45;5.30;99.90
22678;DHT22;26259;50.214;18.620;2023-01-10T04:17:12;5.30;99.90
22678;DHT22;26259;50.214;18.620;2023-01-10T04:19:38;5.30;99.90
22678;DHT22;26259;50.214;18.620;2023-01-10T04:22:04;5.30;99.90
22678;DHT22;26259;50.214;18.620;2023-01-10T04:24:32;5.30;99.90
22678;DHT22;26259;50.214;18.620;2023-01-10T04:26:58;5.30;99.90
22678;DHT22;26259;50.214;18.620;2023-01-10T04:29:23;5.30;99.90
22678;DHT22;26259;50.214;18.620;2023-01-10T04:31:49;5.30;99.90
22678;DHT22;26259;50.214;18.620;2023-01-10T04:34:15;5.20;99.90
22678;DHT22;26259;50.214;18.620;2023-01-10T04:36:41;5.30;99.90
22678;DHT22;26259;50.214;18.620;2023-01-10T04:39:07;5.20;99.90
22678;DHT22;26259;50.214;18.620;2023-01-10T04:41:33;5.20;99.90
22678;DHT22;26259;50.214;18.620;2023-01-10T04:43:58;5.20;99.90
22678;DHT22;26259;50.214;18.620;2023-01-10T04:46:24;5.10;99.90
22678;DHT22;26259;50.214;18.620;2023-01-10T04:48:50;5.20;99.90
22678;DHT22;26259;50.214;18.620;2023-01-10T04:51:15;5.20;99.90
22678;DHT22;26259;50.214;18.620;2023-01-10T04:53:41;5.10;99.90
22678;DHT22;26259;50.214;18.620;2023-01-10T04:56:14;5.20;99.90
22678;DHT22;26259;50.214;18.620;2023-01-10T04:58:40;5.10;99.90
22678;DHT22;26259;50.214;18.620;2023-01-10T05:01:10;5.10;99.90
22678;DHT22;26259;50.214;18.620;2023-01-10T05:03:36;5.10;99.90
22678;DHT22;26259;50.214;18.620;2023-01-10T05:06:01;5.10;99.90
22678;DHT22;26259;50.214;18.620;2023-01-10T05:08:27;5.10;99.90
22678;DHT22;26259;50.214;18.620;2023-01-10T05:10:53;5.10;99.90
22678;DHT22;26259;50.214;18.620;2023-01-10T05:13:18;5.10;99.90
22678;DHT22;26259;50.214;18.620;2023-01-10T05:15:44;5.10;99.90
22678;DHT22;26259;50.214;18.620;2023-01-10T05:18:10;5.10;99.90
22678;DHT22;26259;50.214;18.620;2023-01-10T05:20:35;5.10;99.90
22678;DHT22;26259;50.214;18.620;2023-01-10T05:23:01;5.10;99.90
22678;DHT22;26259;50.214;18.620;2023-01-10T05:25:26;5.10;99.90
22678;DHT22;26259;50.214;18.620;2023-01-10T05:27:52;5.10;99.90
22678;DHT22;26259;50.214;18.620;2023-01-10T05:30:18;5.10;99.90
22678;DHT22;26259;50.214;18.620;2023-01-10T05:32:43;5.10;99.90
22678;DHT22;26259;50.214;18.620;2023-01-10T05:35:09;5.10;99.90
22678;DHT22;26259;50.214;18.620;2023-01-10T05:37:35;5.10;99.90
22678;DHT22;26259;50.214;18.620;2023-01-10T05:40:01;5.10;99.90
22678;DHT22;26259;50.214;18.620;2023-01-10T05:42:27;5.10;99.90
22678;DHT22;26259;50.214;18.620;2023-01-10T05:44:52;5.10;99.90
22678;DHT22;26259;50.214;18.620;2023-01-10T05:47:18;5.10;99.90
22678;DHT22;26259;50.214;18.620;2023-01-10T05:49:43;5.10;99.90
22678;DHT22;26259;50.214;18.620;2023-01-10T05:52:09;5.10;99.90
22678;DHT22;26259;50.214;18.620;2023-01-10T05:54:34;5.10;99.90
22678;DHT22;26259;50.214;18.620;2023-01-10T05:57:00;5.10;99.90
22678;DHT22;26259;50.214;18.620;2023-01-10T05:59:25;5.10;99.90
22678;DHT22;26259;50.214;18.620;2023-01-10T06:01:51;5.10;99.90
22678;DHT22;26259;50.214;18.620;2023-01-10T06:04:17;5.10;99.90
22678;DHT22;26259;50.214;18.620;2023-01-10T06:06:42;5.10;99.90
22678;DHT22;26259;50.214;18.620;2023-01-10T06:09:08;5.10;99.90
22678;DHT22;26259;50.214;18.620;2023-01-10T06:11:33;5.10;99.90
22678;DHT22;26259;50.214;18.620;2023-01-10T06:14:03;5.10;99.90
22678;DHT22;26259;50.214;18.620;2023-01-10T06:16:29;5.10;99.90
22678;DHT22;26259;50.214;18.620;2023-01-10T06:18:54;5.10;99.90
22678;DHT22;26259;50.214;18.620;2023-01-10T06:21:20;5.10;99.90
22678;DHT22;26259;50.214;18.620;2023-01-10T06:23:45;5.10;99.90
22678;DHT22;26259;50.214;18.620;2023-01-10T06:26:11;5.10;99.90
22678;DHT22;26259;50.214;18.620;2023-01-10T06:28:37;5.10;99.90
22678;DHT22;26259;50.214;18.620;2023-01-10T06:31:06;5.10;99.90
22678;DHT22;26259;50.214;18.620;2023-01-10T06:33:31;5.10;99.90
22678;DHT22;26259;50.214;18.620;2023-01-10T06:35:57;5.10;99.90
22678;DHT22;26259;50.214;18.620;2023-01-10T06:38:22;5.10;99.90
22678;DHT22;26259;50.214;18.620;2023-01-10T06:40:48;5.10;99.90
22678;DHT22;26259;50.214;18.620;2023-01-10T06:43:13;5.10;99.90
22678;DHT22;26259;50.214;18.620;2023-01-10T06:45:39;5.10;99.90
22678;DHT22;26259;50.214;18.620;2023-01-10T06:48:04;5.10;99.90
22678;DHT22;26259;50.214;18.620;2023-01-10T06:50:30;5.10;99.90
22678;DHT22;26259;50.214;18.620;2023-01-10T06:52:56;5.10;99.90
22678;DHT22;26259;50.214;18.620;2023-01-10T06:55:22;5.10;99.90
22678;DHT22;26259;50.214;18.620;2023-01-10T06:57:48;5.10;99.90
22678;DHT22;26259;50.214;18.620;2023-01-10T07:00:13;5.10;99.90
22678;DHT22;26259;50.214;18.620;2023-01-10T07:02:39;5.10;99.90
22678;DHT22;26259;50.214;18.620;2023-01-10T07:05:05;5.10;99.90
22678;DHT22;26259;50.214;18.620;2023-01-10T07:07:31;5.10;99.90
22678;DHT22;26259;50.214;18.620;2023-01-10T07:09:56;5.10;99.90
22678;DHT22;26259;50.214;18.620;2023-01-10T07:12:24;5.10;99.90
22678;DHT22;26259;50.214;18.620;2023-01-10T07:14:49;5.10;99.90
22678;DHT22;26259;50.214;18.620;2023-01-10T07:17:15;5.00;99.90
22678;DHT22;26259;50.214;18.620;2023-01-10T07:19:40;5.10;99.90
22678;DHT22;26259;50.214;18.620;2023-01-10T07:22:06;5.10;99.90
22678;DHT22;26259;50.214;18.620;2023-01-10T07:24:31;5.00;99.90
22678;DHT22;26259;50.214;18.620;2023-01-10T07:26:57;5.10;99.90
22678;DHT22;26259;50.214;18.620;2023-01-10T07:29:22;5.10;99.90
22678;DHT22;26259;50.214;18.620;2023-01-10T07:31:48;5.10;99.90
22678;DHT22;26259;50.214;18.620;2023-01-10T07:34:14;5.10;99.90
22678;DHT22;26259;50.214;18.620;2023-01-10T07:36:39;5.10;99.90
22678;DHT22;26259;50.214;18.620;2023-01-10T07:39:05;5.10;99.90
22678;DHT22;26259;50.214;18.620;2023-01-10T07:41:30;5.10;99.90
22678;DHT22;26259;50.214;18.620;2023-01-10T07:43:56;5.10;99.90
22678;DHT22;26259;50.214;18.620;2023-01-10T07:46:22;5.10;99.90
22678;DHT22;26259;50.214;18.620;2023-01-10T07:48:47;5.10;99.90
22678;DHT22;26259;50.214;18.620;2023-01-10T07:51:13;5.10;99.90
22678;DHT22;26259;50.214;18.620;2023-01-10T07:53:39;5.10;99.90
22678;DHT22;26259;50.214;18.620;2023-01-10T07:56:05;5.10;99.90
22678;DHT22;26259;50.214;18.620;2023-01-10T07:58:31;5.10;99.90
22678;DHT22;26259;50.214;18.620;2023-01-10T08:00:58;5.10;99.90
22678;DHT22;26259;50.214;18.620;2023-01-10T08:03:24;5.10;99.90
22678;DHT22;26259;50.214;18.620;2023-01-10T08:06:00;5.10;99.90
22678;DHT22;26259;50.214;18.620;2023-01-10T08:08:26;5.10;99.90
22678;DHT22;26259;50.214;18.620;2023-01-10T08:10:52;5.10;99.90
22678;DHT22;26259;50.214;18.620;2023-01-10T08:13:17;5.10;99.90
22678;DHT22;26259;50.214;18.620;2023-01-10T08:15:43;5.10;99.90
22678;DHT22;26259;50.214;18.620;2023-01-10T08:18:11;5.10;99.90
22678;DHT22;26259;50.214;18.620;2023-01-10T08:20:36;5.10;99.90
22678;DHT22;26259;50.214;18.620;2023-01-10T08:23:03;5.10;99.90
22678;DHT22;26259;50.214;18.620;2023-01-10T08:25:28;5.10;99.90
22678;DHT22;26259;50.214;18.620;2023-01-10T08:27:54;5.10;99.90
22678;DHT22;26259;50.214;18.620;2023-01-10T08:30:20;5.10;99.90
22678;DHT22;26259;50.214;18.620;2023-01-10T08:32:45;5.10;99.90
22678;DHT22;26259;50.214;18.620;2023-01-10T08:35:11;5.20;99.90
22678;DHT22;26259;50.214;18.620;2023-01-10T08:37:37;5.20;99.90
22678;DHT22;26259;50.214;18.620;2023-01-10T08:40:02;5.10;99.90
22678;DHT22;26259;50.214;18.620;2023-01-10T08:42:28;5.10;99.90
22678;DHT22;26259;50.214;18.620;2023-01-10T08:44:54;5.20;99.90
22678;DHT22;26259;50.214;18.620;2023-01-10T08:47:20;5.20;99.90
22678;DHT22;26259;50.214;18.620;2023-01-10T08:49:45;5.20;99.90
22678;DHT22;26259;50.214;18.620;2023-01-10T08:52:14;5.10;99.90
22678;DHT22;26259;50.214;18.620;2023-01-10T08:54:39;5.10;99.90
22678;DHT22;26259;50.214;18.620;2023-01-10T08:57:05;5.20;99.90
22678;DHT22;26259;50.214;18.620;2023-01-10T08:59:31;5.10;99.90
22678;DHT22;26259;50.214;18.620;2023-01-10T09:01:56;5.10;99.90
22678;DHT22;26259;50.214;18.620;2023-01-10T09:04:24;5.10;99.90
22678;DHT22;26259;50.214;18.620;2023-01-10T09:06:50;5.20;99.90
22678;DHT22;26259;50.214;18.620;2023-01-10T09:09:16;5.20;99.90
22678;DHT22;26259;50.214;18.620;2023-01-10T09:11:42;5.20;99.90
22678;DHT22;26259;50.214;18.620;2023-01-10T09:14:07;5.20;99.90
22678;DHT22;26259;50.214;18.620;2023-01-10T09:16:33;5.20;99.90
22678;DHT22;26259;50.214;18.620;2023-01-10T09:18:58;5.20;99.90
22678;DHT22;26259;50.214;18.620;2023-01-10T09:21:24;5.20;99.90
22678;DHT22;26259;50.214;18.620;2023-01-10T09:23:51;5.20;99.90
22678;DHT22;26259;50.214;18.620;2023-01-10T09:26:16;5.20;99.90
22678;DHT22;26259;50.214;18.620;2023-01-10T09:28:42;5.30;99.90
22678;DHT22;26259;50.214;18.620;2023-01-10T09:31:08;5.30;99.90
22678;DHT22;26259;50.214;18.620;2023-01-10T09:33:35;5.30;99.90
22678;DHT22;26259;50.214;18.620;2023-01-10T09:36:01;5.30;99.90
22678;DHT22;26259;50.214;18.620;2023-01-10T09:38:26;5.40;99.90
22678;DHT22;26259;50.214;18.620;2023-01-10T09:41:15;5.30;99.90
22678;DHT22;26259;50.214;18.620;2023-01-10T09:49:48;5.30;99.90
22678;DHT22;26259;50.214;18.620;2023-01-10T09:52:29;5.30;99.90
22678;DHT22;26259;50.214;18.620;2023-01-10T09:54:56;5.30;99.90
22678;DHT22;26259;50.214;18.620;2023-01-10T09:57:23;5.30;99.90
22678;DHT22;26259;50.214;18.620;2023-01-10T09:59:51;5.30;99.90
22678;DHT22;26259;50.214;18.620;2023-01-10T10:02:35;5.30;99.90
22678;DHT22;26259;50.214;18.620;2023-01-10T10:05:36;5.30;99.90
22678;DHT22;26259;50.214;18.620;2023-01-10T10:08:02;5.30;99.90
22678;DHT22;26259;50.214;18.620;2023-01-10T10:10:40;5.40;99.90
22678;DHT22;26259;50.214;18.620;2023-01-10T10:13:30;5.40;99.90
22678;DHT22;26259;50.214;18.620;2023-01-10T10:19:24;5.40;99.90
22678;DHT22;26259;50.214;18.620;2023-01-10T10:30:15;5.40;99.90
22678;DHT22;26259;50.214;18.620;2023-01-10T10:35:37;5.40;99.90
22678;DHT22;26259;50.214;18.620;2023-01-10T10:38:20;5.40;99.90
22678;DHT22;26259;50.214;18.620;2023-01-10T10:40:47;5.40;99.90
22678;DHT22;26259;50.214;18.620;2023-01-10T10:43:19;5.40;99.90
22678;DHT22;26259;50.214;18.620;2023-01-10T10:46:12;5.50;99.90
22678;DHT22;26259;50.214;18.620;2023-01-10T10:48:48;5.50;99.90
22678;DHT22;26259;50.214;18.620;2023-01-10T10:53:50;5.60;99.90
22678;DHT22;26259;50.214;18.620;2023-01-10T10:56:19;5.50;99.90
22678;DHT22;26259;50.214;18.620;2023-01-10T10:58:48;5.50;99.90
22678;DHT22;26259;50.214;18.620;2023-01-10T11:01:16;5.50;99.90
22678;DHT22;26259;50.214;18.620;2023-01-10T11:03:56;5.50;99.90
22678;DHT22;26259;50.214;18.620;2023-01-10T11:06:27;5.50;99.90
22678;DHT22;26259;50.214;18.620;2023-01-10T11:08:56;5.50;99.90
22678;DHT22;26259;50.214;18.620;2023-01-10T11:11:30;5.40;99.90
22678;DHT22;26259;50.214;18.620;2023-01-10T11:14:00;5.40;99.90
22678;DHT22;26259;50.214;18.620;2023-01-10T11:16:45;5.40;99.90
22678;DHT22;26259;50.214;18.620;2023-01-10T11:21:46;5.40;99.90
22678;DHT22;26259;50.214;18.620;2023-01-10T11:24:32;5.50;99.90
22678;DHT22;26259;50.214;18.620;2023-01-10T11:27:01;5.50;99.90
22678;DHT22;26259;50.214;18.620;2023-01-10T11:31:55;5.50;99.90
22678;DHT22;26259;50.214;18.620;2023-01-10T11:34:28;5.50;99.90
22678;DHT22;26259;50.214;18.620;2023-01-10T11:39:25;5.50;99.90
22678;DHT22;26259;50.214;18.620;2023-01-10T11:41:51;5.50;99.90
22678;DHT22;26259;50.214;18.620;2023-01-10T11:46:48;5.50;99.90
22678;DHT22;26259;50.214;18.620;2023-01-10T11:49:38;5.50;99.90
22678;DHT22;26259;50.214;18.620;2023-01-10T11:52:27;5.40;99.90
22678;DHT22;26259;50.214;18.620;2023-01-10T11:54:55;5.50;99.90
22678;DHT22;26259;50.214;18.620;2023-01-10T11:57:26;5.50;99.90
22678;DHT22;26259;50.214;18.620;2023-01-10T11:59:54;5.50;99.90
22678;DHT22;26259;50.214;18.620;2023-01-10T12:02:43;5.50;99.90
22678;DHT22;26259;50.214;18.620;2023-01-10T12:05:16;5.50;99.90
22678;DHT22;26259;50.214;18.620;2023-01-10T12:08:02;5.40;99.90
22678;DHT22;26259;50.214;18.620;2023-01-10T12:10:33;5.40;99.90
22678;DHT22;26259;50.214;18.620;2023-01-10T12:13:12;5.50;99.90
22678;DHT22;26259;50.214;18.620;2023-01-10T12:15:38;5.50;99.90
22678;DHT22;26259;50.214;18.620;2023-01-10T12:18:05;5.50;99.90
22678;DHT22;26259;50.214;18.620;2023-01-10T12:20:43;5.50;99.90
22678;DHT22;26259;50.214;18.620;2023-01-10T12:23:13;5.40;99.90
22678;DHT22;26259;50.214;18.620;2023-01-10T12:25:42;5.50;99.90
22678;DHT22;26259;50.214;18.620;2023-01-10T12:28:26;5.50;99.90
22678;DHT22;26259;50.214;18.620;2023-01-10T12:30:56;5.50;99.90
22678;DHT22;26259;50.214;18.620;2023-01-10T12:33:26;5.50;99.90
22678;DHT22;26259;50.214;18.620;2023-01-10T12:38:35;5.50;99.90
22678;DHT22;26259;50.214;18.620;2023-01-10T12:41:28;5.60;99.90
22678;DHT22;26259;50.214;18.620;2023-01-10T12:44:19;5.50;99.90
22678;DHT22;26259;50.214;18.620;2023-01-10T12:46:50;5.50;99.90
22678;DHT22;26259;50.214;18.620;2023-01-10T12:51:45;5.60;99.90
22678;DHT22;26259;50.214;18.620;2023-01-10T12:54:18;5.60;99.90
22678;DHT22;26259;50.214;18.620;2023-01-10T12:56:45;5.60;99.90
22678;DHT22;26259;50.214;18.620;2023-01-10T12:59:33;5.50;99.90
22678;DHT22;26259;50.214;18.620;2023-01-10T13:02:05;5.50;99.90
22678;DHT22;26259;50.214;18.620;2023-01-10T13:04:33;5.50;99.90
22678;DHT22;26259;50.214;18.620;2023-01-10T13:07:01;5.50;99.90
22678;DHT22;26259;50.214;18.620;2023-01-10T13:09:28;5.50;99.90
22678;DHT22;26259;50.214;18.620;2023-01-10T13:12:12;5.50;99.90
22678;DHT22;26259;50.214;18.620;2023-01-10T13:14:59;5.50;99.90
22678;DHT22;26259;50.214;18.620;2023-01-10T13:22:54;5.50;99.90
22678;DHT22;26259;50.214;18.620;2023-01-10T13:25:35;5.60;99.90
22678;DHT22;26259;50.214;18.620;2023-01-10T13:28:03;5.50;99.90
22678;DHT22;26259;50.214;18.620;2023-01-10T13:30:37;5.50;99.90
22678;DHT22;26259;50.214;18.620;2023-01-10T13:33:27;5.50;99.90
22678;DHT22;26259;50.214;18.620;2023-01-10T13:35:56;5.50;99.90
22678;DHT22;26259;50.214;18.620;2023-01-10T13:38:44;5.50;99.90
22678;DHT22;26259;50.214;18.620;2023-01-10T13:41:11;5.40;99.90
22678;DHT22;26259;50.214;18.620;2023-01-10T13:51:25;5.40;99.90
22678;DHT22;26259;50.214;18.620;2023-01-10T13:58:59;5.40;99.90
22678;DHT22;26259;50.214;18.620;2023-01-10T14:01:51;5.40;99.90
22678;DHT22;26259;50.214;18.620;2023-01-10T14:04:48;5.40;99.90
22678;DHT22;26259;50.214;18.620;2023-01-10T14:07:30;5.50;99.90
22678;DHT22;26259;50.214;18.620;2023-01-10T14:10:17;5.50;99.90
22678;DHT22;26259;50.214;18.620;2023-01-10T14:13:04;5.50;99.90
22678;DHT22;26259;50.214;18.620;2023-01-10T14:15:44;5.50;99.90
22678;DHT22;26259;50.214;18.620;2023-01-10T14:18:33;5.50;99.90
22678;DHT22;26259;50.214;18.620;2023-01-10T14:21:07;5.50;99.90
22678;DHT22;26259;50.214;18.620;2023-01-10T14:23:48;5.60;99.90
22678;DHT22;26259;50.214;18.620;2023-01-10T14:28:59;5.60;99.90
22678;DHT22;26259;50.214;18.620;2023-01-10T14:31:26;5.50;99.90
22678;DHT22;26259;50.214;18.620;2023-01-10T14:33:52;5.50;99.90
22678;DHT22;26259;50.214;18.620;2023-01-10T14:36:35;5.50;99.90
22678;DHT22;26259;50.214;18.620;2023-01-10T14:39:04;5.60;99.90
22678;DHT22;26259;50.214;18.620;2023-01-10T14:41:41;5.60;99.90
22678;DHT22;26259;50.214;18.620;2023-01-10T14:46:52;5.50;99.90
22678;DHT22;26259;50.214;18.620;2023-01-10T14:49:26;5.50;99.90
22678;DHT22;26259;50.214;18.620;2023-01-10T14:51:54;5.50;99.90
22678;DHT22;26259;50.214;18.620;2023-01-10T14:54:26;5.50;99.90
22678;DHT22;26259;50.214;18.620;2023-01-10T14:56:54;5.50;99.90
22678;DHT22;26259;50.214;18.620;2023-01-10T14:59:23;5.50;99.90
22678;DHT22;26259;50.214;18.620;2023-01-10T15:02:10;5.50;99.90
22678;DHT22;26259;50.214;18.620;2023-01-10T15:04:55;5.50;99.90
22678;DHT22;26259;50.214;18.620;2023-01-10T15:07:22;5.50;99.90
22678;DHT22;26259;50.214;18.620;2023-01-10T15:09:53;5.50;99.90
22678;DHT22;26259;50.214;18.620;2023-01-10T15:12:23;5.40;99.90
22678;DHT22;26259;50.214;18.620;2023-01-10T15:14:58;5.40;99.90
22678;DHT22;26259;50.214;18.620;2023-01-10T15:17:25;5.40;99.90
22678;DHT22;26259;50.214;18.620;2023-01-10T15:19:52;5.40;99.90
22678;DHT22;26259;50.214;18.620;2023-01-10T15:22:57;5.40;99.90
22678;DHT22;26259;50.214;18.620;2023-01-10T15:27:53;5.40;99.90
22678;DHT22;26259;50.214;18.620;2023-01-10T15:30:28;5.40;99.90
22678;DHT22;26259;50.214;18.620;2023-01-10T15:33:03;5.40;99.90
22678;DHT22;26259;50.214;18.620;2023-01-10T15:35:30;5.30;99.90
22678;DHT22;26259;50.214;18.620;2023-01-10T15:38:01;5.40;99.90
22678;DHT22;26259;50.214;18.620;2023-01-10T15:40:31;5.30;99.90
22678;DHT22;26259;50.214;18.620;2023-01-10T15:45:41;5.30;99.90
22678;DHT22;26259;50.214;18.620;2023-01-10T15:48:31;5.30;99.90
22678;DHT22;26259;50.214;18.620;2023-01-10T15:51:45;5.20;99.90
22678;DHT22;26259;50.214;18.620;2023-01-10T15:56:25;5.00;99.90
22678;DHT22;26259;50.214;18.620;2023-01-10T15:58:52;5.00;99.90
22678;DHT22;26259;50.214;18.620;2023-01-10T16:01:18;4.90;99.90
22678;DHT22;26259;50.214;18.620;2023-01-10T16:06:31;4.80;99.90
22678;DHT22;26259;50.214;18.620;2023-01-10T16:08:59;4.80;99.90
22678;DHT22;26259;50.214;18.620;2023-01-10T16:11:27;4.80;99.90
22678;DHT22;26259;50.214;18.620;2023-01-10T16:14:12;4.70;99.90
22678;DHT22;26259;50.214;18.620;2023-01-10T16:16:38;4.70;99.90
22678;DHT22;26259;50.214;18.620;2023-01-10T16:19:04;4.70;99.90
22678;DHT22;26259;50.214;18.620;2023-01-10T16:21:53;4.70;99.90
22678;DHT22;26259;50.214;18.620;2023-01-10T16:24:27;4.60;99.90
22678;DHT22;26259;50.214;18.620;2023-01-10T16:26:54;4.50;99.90
22678;DHT22;26259;50.214;18.620;2023-01-10T16:29:21;4.50;99.90
22678;DHT22;26259;50.214;18.620;2023-01-10T16:31:47;4.50;99.90
22678;DHT22;26259;50.214;18.620;2023-01-10T16:34:13;4.40;99.90
22678;DHT22;26259;50.214;18.620;2023-01-10T16:36:39;4.40;99.90
22678;DHT22;26259;50.214;18.620;2023-01-10T16:39:13;4.30;99.90
22678;DHT22;26259;50.214;18.620;2023-01-10T16:41:39;4.30;99.90
22678;DHT22;26259;50.214;18.620;2023-01-10T16:44:23;4.20;99.90
22678;DHT22;26259;50.214;18.620;2023-01-10T16:46:48;4.10;99.90
22678;DHT22;26259;50.214;18.620;2023-01-10T16:49:14;4.00;99.90
22678;DHT22;26259;50.214;18.620;2023-01-10T16:51:42;4.00;99.90
22678;DHT22;26259;50.214;18.620;2023-01-10T16:54:15;3.90;99.90
22678;DHT22;26259;50.214;18.620;2023-01-10T16:56:42;3.90;99.90
22678;DHT22;26259;50.214;18.620;2023-01-10T16:59:09;3.90;99.90
22678;DHT22;26259;50.214;18.620;2023-01-10T17:01:41;4.00;99.90
22678;DHT22;26259;50.214;18.620;2023-01-10T17:04:11;4.00;99.90
22678;DHT22;26259;50.214;18.620;2023-01-10T17:06:40;4.00;99.90
22678;DHT22;26259;50.214;18.620;2023-01-10T17:09:08;4.00;99.90
22678;DHT22;26259;50.214;18.620;2023-01-10T17:11:38;4.00;99.90
22678;DHT22;26259;50.214;18.620;2023-01-10T17:14:06;4.10;99.90
22678;DHT22;26259;50.214;18.620;2023-01-10T17:16:33;4.10;99.90
22678;DHT22;26259;50.214;18.620;2023-01-10T17:18:59;4.20;99.90
22678;DHT22;26259;50.214;18.620;2023-01-10T17:21:25;4.20;99.90
22678;DHT22;26259;50.214;18.620;2023-01-10T17:23:51;4.20;99.90
22678;DHT22;26259;50.214;18.620;2023-01-10T17:26:17;4.20;99.90
22678;DHT22;26259;50.214;18.620;2023-01-10T17:28:43;4.20;99.90
22678;DHT22;26259;50.214;18.620;2023-01-10T17:31:11;4.20;99.90
22678;DHT22;26259;50.214;18.620;2023-01-10T17:33:36;4.20;99.90
22678;DHT22;26259;50.214;18.620;2023-01-10T17:36:02;4.10;99.90